sensor_id;sensor_type;location;lat;lon;timestamp;P1;durP1;ratioP1;P2;durP2;ratioP2
76119;SDS011;64852;48.092;-1.640;2023-01-15T00:00:12;30.88;;;28.38;;
76119;SDS011;64852;48.092;-1.640;2023-01-15T00:02:38;30.50;;;28.00;;
76119;SDS011;64852;48.092;-1.640;2023-01-15T00:05:03;31.83;;;29.23;;
76119;SDS011;64852;48.092;-1.640;2023-01-15T00:07:30;30.88;;;28.38;;
76119;SDS011;64852;48.092;-1.640;2023-01-15T00:09:55;31.95;;;29.35;;
76119;SDS011;64852;48.092;-1.640;2023-01-15T00:12:21;32.00;;;29.40;;
76119;SDS011;64852;48.092;-1.640;2023-01-15T00:14:47;30.45;;;27.95;;
76119;SDS011;64852;48.092;-1.640;2023-01-15T00:17:12;31.10;;;28.60;;
76119;SDS011;64852;48.092;-1.640;2023-01-15T00:19:38;31.98;;;29.38;;
76119;SDS011;64852;48.092;-1.640;2023-01-15T00:22:04;31.05;;;28.55;;
76119;SDS011;64852;48.092;-1.640;2023-01-15T00:24:29;30.20;;;27.80;;
76119;SDS011;64852;48.092;-1.640;2023-01-15T00:27:13;31.38;;;28.67;;
76119;SDS011;64852;48.092;-1.640;2023-01-15T00:29:58;30.77;;;28.38;;
76119;SDS011;64852;48.092;-1.640;2023-01-15T00:32:23;32.08;;;29.38;;
76119;SDS011;64852;48.092;-1.640;2023-01-15T00:34:51;31.13;;;28.63;;
76119;SDS011;64852;48.092;-1.640;2023-01-15T00:37:17;30.10;;;27.70;;
76119;SDS011;64852;48.092;-1.640;2023-01-15T00:39:43;30.48;;;27.98;;
76119;SDS011;64852;48.092;-1.640;2023-01-15T00:42:10;32.20;;;29.70;;
76119;SDS011;64852;48.092;-1.640;2023-01-15T00:44:36;32.92;;;30.33;;
76119;SDS011;64852;48.092;-1.640;2023-01-15T00:47:01;32.95;;;30.35;;
76119;SDS011;64852;48.092;-1.640;2023-01-15T00:49:27;33.08;;;30.50;;
76119;SDS011;64852;48.092;-1.640;2023-01-15T00:51:53;35.30;;;32.60;;
76119;SDS011;64852;48.092;-1.640;2023-01-15T00:54:19;34.55;;;31.75;;
76119;SDS011;64852;48.092;-1.640;2023-01-15T00:56:44;34.13;;;31.52;;
76119;SDS011;64852;48.092;-1.640;2023-01-15T00:59:10;30.85;;;28.40;;
76119;SDS011;64852;48.092;-1.640;2023-01-15T01:01:39;31.65;;;29.15;;
76119;SDS011;64852;48.092;-1.640;2023-01-15T01:04:05;31.65;;;29.15;;
76119;SDS011;64852;48.092;-1.640;2023-01-15T01:06:31;30.73;;;28.30;;
76119;SDS011;64852;48.092;-1.640;2023-01-15T01:08:57;31.58;;;29.08;;
76119;SDS011;64852;48.092;-1.640;2023-01-15T01:11:23;32.27;;;29.67;;
76119;SDS011;64852;48.092;-1.640;2023-01-15T01:13:51;31.25;;;28.77;;
76119;SDS011;64852;48.092;-1.640;2023-01-15T01:18:49;31.40;;;29.00;;
76119;SDS011;64852;48.092;-1.640;2023-01-15T01:21:15;31.25;;;28.75;;
76119;SDS011;64852;48.092;-1.640;2023-01-15T01:23:42;31.02;;;28.52;;
76119;SDS011;64852;48.092;-1.640;2023-01-15T01:28:34;30.98;;;28.58;;
76119;SDS011;64852;48.092;-1.640;2023-01-15T01:31:03;30.88;;;28.45;;
76119;SDS011;64852;48.092;-1.640;2023-01-15T01:33:29;32.25;;;29.75;;
76119;SDS011;64852;48.092;-1.640;2023-01-15T01:35:54;32.03;;;29.63;;
76119;SDS011;64852;48.092;-1.640;2023-01-15T01:38:20;31.43;;;29.03;;
76119;SDS011;64852;48.092;-1.640;2023-01-15T01:40:46;31.30;;;28.90;;
76119;SDS011;64852;48.092;-1.640;2023-01-15T01:43:19;32.10;;;29.70;;
76119;SDS011;64852;48.092;-1.640;2023-01-15T01:45:48;31.08;;;28.67;;
76119;SDS011;64852;48.092;-1.640;2023-01-15T01:48:14;30.65;;;28.35;;
76119;SDS011;64852;48.092;-1.640;2023-01-15T01:50:42;31.80;;;29.40;;
76119;SDS011;64852;48.092;-1.640;2023-01-15T01:53:11;31.73;;;29.35;;
76119;SDS011;64852;48.092;-1.640;2023-01-15T01:55:41;32.22;;;29.77;;
76119;SDS011;64852;48.092;-1.640;2023-01-15T01:58:08;31.30;;;29.00;;
76119;SDS011;64852;48.092;-1.640;2023-01-15T02:00:35;32.38;;;29.98;;
76119;SDS011;64852;48.092;-1.640;2023-01-15T02:03:03;32.03;;;29.73;;
76119;SDS011;64852;48.092;-1.640;2023-01-15T02:05:31;32.53;;;30.13;;
76119;SDS011;64852;48.092;-1.640;2023-01-15T02:07:59;33.15;;;30.75;;
76119;SDS011;64852;48.092;-1.640;2023-01-15T02:10:25;32.75;;;30.35;;
76119;SDS011;64852;48.092;-1.640;2023-01-15T02:15:35;32.42;;;29.75;;
76119;SDS011;64852;48.092;-1.640;2023-01-15T02:20:48;31.38;;;29.08;;
76119;SDS011;64852;48.092;-1.640;2023-01-15T02:23:26;31.17;;;28.88;;
76119;SDS011;64852;48.092;-1.640;2023-01-15T02:28:27;31.27;;;28.98;;
76119;SDS011;64852;48.092;-1.640;2023-01-15T02:30:59;30.67;;;28.48;;
76119;SDS011;64852;48.092;-1.640;2023-01-15T02:33:34;30.83;;;28.58;;
76119;SDS011;64852;48.092;-1.640;2023-01-15T02:36:04;30.38;;;28.17;;
76119;SDS011;64852;48.092;-1.640;2023-01-15T02:38:34;31.08;;;28.80;;
76119;SDS011;64852;48.092;-1.640;2023-01-15T02:41:04;30.55;;;28.35;;
76119;SDS011;64852;48.092;-1.640;2023-01-15T02:43:33;30.92;;;28.73;;
76119;SDS011;64852;48.092;-1.640;2023-01-15T02:46:01;30.90;;;28.70;;
76119;SDS011;64852;48.092;-1.640;2023-01-15T02:48:29;29.55;;;27.45;;
76119;SDS011;64852;48.092;-1.640;2023-01-15T02:51:05;31.17;;;28.88;;
76119;SDS011;64852;48.092;-1.640;2023-01-15T02:53:34;30.35;;;28.15;;
76119;SDS011;64852;48.092;-1.640;2023-01-15T02:56:06;30.40;;;28.20;;
76119;SDS011;64852;48.092;-1.640;2023-01-15T02:58:37;30.10;;;27.90;;
76119;SDS011;64852;48.092;-1.640;2023-01-15T03:01:10;30.02;;;27.83;;
76119;SDS011;64852;48.092;-1.640;2023-01-15T03:04:16;29.80;;;27.70;;
76119;SDS011;64852;48.092;-1.640;2023-01-15T03:07:10;29.63;;;27.50;;
76119;SDS011;64852;48.092;-1.640;2023-01-15T03:09:29;32.17;;;29.17;;
76119;SDS011;64852;48.092;-1.640;2023-01-15T03:15:02;32.40;;;30.10;;
76119;SDS011;64852;48.092;-1.640;2023-01-15T03:20:34;32.28;;;29.98;;
76119;SDS011;64852;48.092;-1.640;2023-01-15T03:23:07;33.45;;;31.05;;
76119;SDS011;64852;48.092;-1.640;2023-01-15T03:25:39;32.88;;;30.33;;
76119;SDS011;64852;48.092;-1.640;2023-01-15T03:28:07;32.17;;;29.80;;
76119;SDS011;64852;48.092;-1.640;2023-01-15T03:30:36;32.40;;;30.10;;
76119;SDS011;64852;48.092;-1.640;2023-01-15T03:35:48;31.27;;;29.08;;
76119;SDS011;64852;48.092;-1.640;2023-01-15T03:38:26;31.63;;;29.33;;
76119;SDS011;64852;48.092;-1.640;2023-01-15T03:43:38;31.02;;;28.83;;
76119;SDS011;64852;48.092;-1.640;2023-01-15T03:59:53;29.63;;;27.52;;
76119;SDS011;64852;48.092;-1.640;2023-01-15T04:02:23;30.08;;;27.92;;
76119;SDS011;64852;48.092;-1.640;2023-01-15T04:04:50;30.33;;;27.98;;
76119;SDS011;64852;48.092;-1.640;2023-01-15T04:07:17;29.38;;;27.27;;
76119;SDS011;64852;48.092;-1.640;2023-01-15T04:09:43;29.48;;;27.38;;
76119;SDS011;64852;48.092;-1.640;2023-01-15T04:12:09;28.92;;;26.92;;
76119;SDS011;64852;48.092;-1.640;2023-01-15T04:14:35;30.33;;;27.95;;
76119;SDS011;64852;48.092;-1.640;2023-01-15T04:17:01;29.17;;;27.08;;
76119;SDS011;64852;48.092;-1.640;2023-01-15T04:19:27;29.10;;;27.10;;
76119;SDS011;64852;48.092;-1.640;2023-01-15T04:21:53;28.30;;;26.40;;
76119;SDS011;64852;48.092;-1.640;2023-01-15T04:24:18;28.08;;;26.08;;
76119;SDS011;64852;48.092;-1.640;2023-01-15T04:26:44;26.95;;;25.15;;
76119;SDS011;64852;48.092;-1.640;2023-01-15T04:29:09;27.00;;;25.20;;
76119;SDS011;64852;48.092;-1.640;2023-01-15T04:31:35;27.60;;;25.80;;
76119;SDS011;64852;48.092;-1.640;2023-01-15T04:34:01;27.77;;;25.88;;
76119;SDS011;64852;48.092;-1.640;2023-01-15T04:36:27;28.20;;;26.30;;
76119;SDS011;64852;48.092;-1.640;2023-01-15T04:38:54;26.58;;;24.88;;
76119;SDS011;64852;48.092;-1.640;2023-01-15T04:41:21;26.13;;;24.42;;
76119;SDS011;64852;48.092;-1.640;2023-01-15T04:44:05;26.15;;;24.45;;
76119;SDS011;64852;48.092;-1.640;2023-01-15T04:46:38;28.13;;;26.15;;
76119;SDS011;64852;48.092;-1.640;2023-01-15T04:49:08;26.35;;;24.65;;
76119;SDS011;64852;48.092;-1.640;2023-01-15T04:51:41;26.45;;;24.65;;
76119;SDS011;64852;48.092;-1.640;2023-01-15T04:54:08;25.45;;;23.80;;
76119;SDS011;64852;48.092;-1.640;2023-01-15T04:56:41;25.83;;;24.13;;
76119;SDS011;64852;48.092;-1.640;2023-01-15T04:59:09;25.83;;;24.13;;
76119;SDS011;64852;48.092;-1.640;2023-01-15T05:01:35;26.85;;;25.05;;
76119;SDS011;64852;48.092;-1.640;2023-01-15T05:04:01;26.95;;;25.15;;
76119;SDS011;64852;48.092;-1.640;2023-01-15T05:06:27;25.88;;;24.17;;
76119;SDS011;64852;48.092;-1.640;2023-01-15T05:08:55;27.35;;;25.45;;
76119;SDS011;64852;48.092;-1.640;2023-01-15T05:11:21;28.55;;;26.27;;
76119;SDS011;64852;48.092;-1.640;2023-01-15T05:13:47;27.45;;;25.58;;
76119;SDS011;64852;48.092;-1.640;2023-01-15T05:16:17;27.03;;;25.23;;
76119;SDS011;64852;48.092;-1.640;2023-01-15T05:18:48;27.15;;;25.25;;
76119;SDS011;64852;48.092;-1.640;2023-01-15T05:21:18;26.90;;;25.10;;
76119;SDS011;64852;48.092;-1.640;2023-01-15T05:23:44;28.23;;;25.83;;
76119;SDS011;64852;48.092;-1.640;2023-01-15T05:26:11;26.77;;;24.98;;
76119;SDS011;64852;48.092;-1.640;2023-01-15T05:28:37;26.70;;;24.90;;
76119;SDS011;64852;48.092;-1.640;2023-01-15T05:31:06;27.23;;;25.42;;
76119;SDS011;64852;48.092;-1.640;2023-01-15T05:33:33;27.27;;;25.48;;
76119;SDS011;64852;48.092;-1.640;2023-01-15T05:36:00;27.75;;;25.80;;
76119;SDS011;64852;48.092;-1.640;2023-01-15T05:38:27;27.00;;;25.20;;
76119;SDS011;64852;48.092;-1.640;2023-01-15T05:40:53;26.97;;;25.17;;
76119;SDS011;64852;48.092;-1.640;2023-01-15T05:43:19;41.08;;;27.40;;
76119;SDS011;64852;48.092;-1.640;2023-01-15T05:45:44;29.20;;;27.10;;
76119;SDS011;64852;48.092;-1.640;2023-01-15T05:48:10;29.15;;;26.95;;
76119;SDS011;64852;48.092;-1.640;2023-01-15T05:50:35;27.67;;;25.87;;
76119;SDS011;64852;48.092;-1.640;2023-01-15T05:53:01;27.70;;;25.90;;
76119;SDS011;64852;48.092;-1.640;2023-01-15T05:55:27;29.67;;;27.60;;
76119;SDS011;64852;48.092;-1.640;2023-01-15T05:57:53;29.48;;;27.48;;
76119;SDS011;64852;48.092;-1.640;2023-01-15T06:00:18;27.88;;;26.08;;
76119;SDS011;64852;48.092;-1.640;2023-01-15T06:02:47;29.40;;;27.15;;
76119;SDS011;64852;48.092;-1.640;2023-01-15T06:05:13;26.77;;;24.98;;
76119;SDS011;64852;48.092;-1.640;2023-01-15T06:07:44;26.38;;;24.67;;
76119;SDS011;64852;48.092;-1.640;2023-01-15T06:10:14;26.48;;;24.73;;
76119;SDS011;64852;48.092;-1.640;2023-01-15T06:12:41;25.83;;;24.13;;
76119;SDS011;64852;48.092;-1.640;2023-01-15T06:15:07;27.67;;;25.80;;
76119;SDS011;64852;48.092;-1.640;2023-01-15T06:19:59;26.42;;;24.73;;
76119;SDS011;64852;48.092;-1.640;2023-01-15T06:22:25;26.17;;;24.48;;
76119;SDS011;64852;48.092;-1.640;2023-01-15T06:24:50;26.23;;;24.40;;
76119;SDS011;64852;48.092;-1.640;2023-01-15T06:27:16;25.88;;;24.17;;
76119;SDS011;64852;48.092;-1.640;2023-01-15T06:29:41;26.20;;;24.50;;
76119;SDS011;64852;48.092;-1.640;2023-01-15T06:32:07;26.17;;;24.30;;
76119;SDS011;64852;48.092;-1.640;2023-01-15T06:34:33;24.38;;;22.80;;
76119;SDS011;64852;48.092;-1.640;2023-01-15T06:36:58;25.42;;;23.83;;
76119;SDS011;64852;48.092;-1.640;2023-01-15T06:39:24;25.60;;;23.95;;
76119;SDS011;64852;48.092;-1.640;2023-01-15T06:41:49;26.63;;;24.83;;
76119;SDS011;64852;48.092;-1.640;2023-01-15T06:44:33;25.98;;;24.27;;
76119;SDS011;64852;48.092;-1.640;2023-01-15T06:47:18;26.13;;;24.30;;
76119;SDS011;64852;48.092;-1.640;2023-01-15T06:49:44;25.42;;;23.63;;
76119;SDS011;64852;48.092;-1.640;2023-01-15T06:52:11;26.00;;;24.30;;
76119;SDS011;64852;48.092;-1.640;2023-01-15T06:54:36;26.63;;;24.52;;
76119;SDS011;64852;48.092;-1.640;2023-01-15T06:57:02;25.25;;;23.65;;
76119;SDS011;64852;48.092;-1.640;2023-01-15T06:59:28;27.88;;;26.08;;
76119;SDS011;64852;48.092;-1.640;2023-01-15T07:01:54;27.35;;;25.55;;
76119;SDS011;64852;48.092;-1.640;2023-01-15T07:04:19;27.38;;;25.58;;
76119;SDS011;64852;48.092;-1.640;2023-01-15T07:06:45;27.20;;;25.40;;
76119;SDS011;64852;48.092;-1.640;2023-01-15T07:09:11;26.80;;;25.10;;
76119;SDS011;64852;48.092;-1.640;2023-01-15T07:11:37;26.33;;;24.73;;
76119;SDS011;64852;48.092;-1.640;2023-01-15T07:14:23;27.60;;;25.90;;
76119;SDS011;64852;48.092;-1.640;2023-01-15T07:16:51;28.52;;;26.20;;
76119;SDS011;64852;48.092;-1.640;2023-01-15T07:19:17;25.77;;;24.15;;
76119;SDS011;64852;48.092;-1.640;2023-01-15T07:21:44;26.92;;;25.13;;
76119;SDS011;64852;48.092;-1.640;2023-01-15T07:26:36;34.30;;;25.10;;
76119;SDS011;64852;48.092;-1.640;2023-01-15T07:29:02;25.85;;;24.15;;
76119;SDS011;64852;48.092;-1.640;2023-01-15T07:31:29;26.65;;;24.95;;
76119;SDS011;64852;48.092;-1.640;2023-01-15T07:33:55;25.88;;;24.27;;
76119;SDS011;64852;48.092;-1.640;2023-01-15T07:36:21;26.85;;;25.05;;
76119;SDS011;64852;48.092;-1.640;2023-01-15T07:38:47;25.95;;;24.25;;
76119;SDS011;64852;48.092;-1.640;2023-01-15T07:41:13;26.17;;;24.48;;
76119;SDS011;64852;48.092;-1.640;2023-01-15T07:43:57;25.63;;;23.92;;
76119;SDS011;64852;48.092;-1.640;2023-01-15T07:46:41;25.67;;;24.08;;
76119;SDS011;64852;48.092;-1.640;2023-01-15T07:49:25;29.50;;;27.50;;
76119;SDS011;64852;48.092;-1.640;2023-01-15T07:52:09;25.73;;;24.02;;
76119;SDS011;64852;48.092;-1.640;2023-01-15T07:54:38;26.67;;;24.92;;
76119;SDS011;64852;48.092;-1.640;2023-01-15T07:57:03;24.80;;;23.20;;
76119;SDS011;64852;48.092;-1.640;2023-01-15T07:59:30;25.63;;;24.00;;
76119;SDS011;64852;48.092;-1.640;2023-01-15T08:01:56;25.75;;;24.15;;
76119;SDS011;64852;48.092;-1.640;2023-01-15T08:04:21;27.02;;;25.23;;
76119;SDS011;64852;48.092;-1.640;2023-01-15T08:06:47;28.23;;;26.20;;
76119;SDS011;64852;48.092;-1.640;2023-01-15T08:09:12;27.30;;;25.50;;
76119;SDS011;64852;48.092;-1.640;2023-01-15T08:11:38;26.25;;;24.65;;
76119;SDS011;64852;48.092;-1.640;2023-01-15T08:14:22;26.48;;;24.77;;
76119;SDS011;64852;48.092;-1.640;2023-01-15T08:17:06;26.80;;;25.10;;
76119;SDS011;64852;48.092;-1.640;2023-01-15T08:19:32;28.73;;;26.60;;
76119;SDS011;64852;48.092;-1.640;2023-01-15T08:21:58;29.15;;;26.77;;
76119;SDS011;64852;48.092;-1.640;2023-01-15T08:24:26;26.38;;;24.67;;
76119;SDS011;64852;48.092;-1.640;2023-01-15T08:26:52;26.65;;;25.02;;
76119;SDS011;64852;48.092;-1.640;2023-01-15T08:29:18;27.27;;;25.48;;
76119;SDS011;64852;48.092;-1.640;2023-01-15T08:31:45;26.77;;;24.98;;
76119;SDS011;64852;48.092;-1.640;2023-01-15T08:34:11;27.02;;;25.23;;
76119;SDS011;64852;48.092;-1.640;2023-01-15T08:36:36;28.98;;;26.77;;
76119;SDS011;64852;48.092;-1.640;2023-01-15T08:39:02;25.52;;;23.92;;
76119;SDS011;64852;48.092;-1.640;2023-01-15T08:41:28;26.80;;;25.10;;
76119;SDS011;64852;48.092;-1.640;2023-01-15T08:46:20;29.92;;;27.60;;
76119;SDS011;64852;48.092;-1.640;2023-01-15T08:48:46;44.88;;;28.25;;
76119;SDS011;64852;48.092;-1.640;2023-01-15T08:51:12;33.05;;;27.45;;
76119;SDS011;64852;48.092;-1.640;2023-01-15T08:53:38;28.13;;;26.33;;
76119;SDS011;64852;48.092;-1.640;2023-01-15T08:56:07;26.90;;;25.20;;
76119;SDS011;64852;48.092;-1.640;2023-01-15T08:58:37;26.95;;;25.17;;
76119;SDS011;64852;48.092;-1.640;2023-01-15T09:01:04;29.20;;;26.55;;
76119;SDS011;64852;48.092;-1.640;2023-01-15T09:03:34;28.55;;;26.65;;
76119;SDS011;64852;48.092;-1.640;2023-01-15T09:06:00;26.02;;;24.42;;
76119;SDS011;64852;48.092;-1.640;2023-01-15T09:08:26;26.80;;;25.15;;
76119;SDS011;64852;48.092;-1.640;2023-01-15T09:10:57;27.80;;;26.00;;
76119;SDS011;64852;48.092;-1.640;2023-01-15T09:13:24;26.40;;;24.70;;
76119;SDS011;64852;48.092;-1.640;2023-01-15T09:15:50;27.65;;;25.75;;
76119;SDS011;64852;48.092;-1.640;2023-01-15T09:18:16;27.00;;;25.30;;
76119;SDS011;64852;48.092;-1.640;2023-01-15T09:20:46;26.85;;;25.15;;
76119;SDS011;64852;48.092;-1.640;2023-01-15T09:23:12;27.55;;;25.58;;
76119;SDS011;64852;48.092;-1.640;2023-01-15T09:25:38;27.38;;;25.58;;
76119;SDS011;64852;48.092;-1.640;2023-01-15T09:28:05;26.98;;;25.17;;
76119;SDS011;64852;48.092;-1.640;2023-01-15T09:30:30;27.25;;;24.23;;
76119;SDS011;64852;48.092;-1.640;2023-01-15T09:32:57;25.67;;;24.08;;
76119;SDS011;64852;48.092;-1.640;2023-01-15T09:35:22;25.83;;;24.30;;
76119;SDS011;64852;48.092;-1.640;2023-01-15T09:37:51;27.73;;;25.83;;
76119;SDS011;64852;48.092;-1.640;2023-01-15T09:40:39;27.98;;;24.73;;
76119;SDS011;64852;48.092;-1.640;2023-01-15T09:46:03;26.67;;;24.92;;
76119;SDS011;64852;48.092;-1.640;2023-01-15T09:51:55;26.70;;;24.98;;
76119;SDS011;64852;48.092;-1.640;2023-01-15T09:57:11;25.93;;;24.33;;
76119;SDS011;64852;48.092;-1.640;2023-01-15T09:59:38;24.73;;;23.23;;
76119;SDS011;64852;48.092;-1.640;2023-01-15T10:02:28;25.65;;;23.92;;
76119;SDS011;64852;48.092;-1.640;2023-01-15T10:05:00;24.90;;;23.40;;
76119;SDS011;64852;48.092;-1.640;2023-01-15T10:10:16;24.05;;;22.55;;
76119;SDS011;64852;48.092;-1.640;2023-01-15T10:12:47;24.67;;;22.85;;
76119;SDS011;64852;48.092;-1.640;2023-01-15T10:18:00;24.00;;;22.60;;
76119;SDS011;64852;48.092;-1.640;2023-01-15T10:26:36;24.65;;;23.15;;
76119;SDS011;64852;48.092;-1.640;2023-01-15T10:37:40;22.50;;;21.10;;
76119;SDS011;64852;48.092;-1.640;2023-01-15T10:56:12;29.50;;;26.33;;
76119;SDS011;64852;48.092;-1.640;2023-01-15T10:59:09;25.23;;;23.70;;
76119;SDS011;64852;48.092;-1.640;2023-01-15T11:01:52;24.27;;;22.85;;
76119;SDS011;64852;48.092;-1.640;2023-01-15T11:04:19;23.20;;;21.55;;
76119;SDS011;64852;48.092;-1.640;2023-01-15T11:06:45;24.95;;;23.17;;
76119;SDS011;64852;48.092;-1.640;2023-01-15T11:09:16;34.70;;;22.98;;
76119;SDS011;64852;48.092;-1.640;2023-01-15T11:11:49;23.58;;;22.08;;
76119;SDS011;64852;48.092;-1.640;2023-01-15T11:14:31;22.50;;;21.20;;
76119;SDS011;64852;48.092;-1.640;2023-01-15T11:17:34;22.60;;;21.30;;
76119;SDS011;64852;48.092;-1.640;2023-01-15T11:23:13;22.13;;;20.83;;
76119;SDS011;64852;48.092;-1.640;2023-01-15T11:25:53;22.40;;;20.60;;
76119;SDS011;64852;48.092;-1.640;2023-01-15T11:28:35;22.40;;;21.05;;
76119;SDS011;64852;48.092;-1.640;2023-01-15T11:31:07;19.63;;;18.52;;
76119;SDS011;64852;48.092;-1.640;2023-01-15T11:33:34;21.52;;;20.23;;
76119;SDS011;64852;48.092;-1.640;2023-01-15T11:36:06;20.92;;;19.73;;
76119;SDS011;64852;48.092;-1.640;2023-01-15T11:38:45;19.90;;;18.70;;
76119;SDS011;64852;48.092;-1.640;2023-01-15T11:41:31;16.65;;;15.75;;
76119;SDS011;64852;48.092;-1.640;2023-01-15T11:44:17;15.40;;;14.57;;
76119;SDS011;64852;48.092;-1.640;2023-01-15T11:47:03;16.15;;;15.18;;
76119;SDS011;64852;48.092;-1.640;2023-01-15T11:49:55;16.48;;;15.13;;
76119;SDS011;64852;48.092;-1.640;2023-01-15T11:52:53;16.75;;;15.15;;
76119;SDS011;64852;48.092;-1.640;2023-01-15T11:55:22;14.73;;;13.93;;
76119;SDS011;64852;48.092;-1.640;2023-01-15T11:57:50;16.75;;;15.85;;
76119;SDS011;64852;48.092;-1.640;2023-01-15T12:00:25;16.75;;;15.75;;
76119;SDS011;64852;48.092;-1.640;2023-01-15T12:03:00;14.85;;;14.05;;
76119;SDS011;64852;48.092;-1.640;2023-01-15T12:05:30;15.00;;;14.20;;
76119;SDS011;64852;48.092;-1.640;2023-01-15T12:08:03;13.98;;;13.20;;
76119;SDS011;64852;48.092;-1.640;2023-01-15T12:10:55;12.13;;;11.50;;
76119;SDS011;64852;48.092;-1.640;2023-01-15T12:16:44;12.10;;;11.50;;
76119;SDS011;64852;48.092;-1.640;2023-01-15T12:19:21;12.70;;;12.00;;
76119;SDS011;64852;48.092;-1.640;2023-01-15T12:28:17;12.45;;;11.65;;
76119;SDS011;64852;48.092;-1.640;2023-01-15T12:31:00;12.02;;;11.32;;
76119;SDS011;64852;48.092;-1.640;2023-01-15T12:33:49;13.55;;;12.75;;
76119;SDS011;64852;48.092;-1.640;2023-01-15T12:36:26;14.40;;;13.60;;
76119;SDS011;64852;48.092;-1.640;2023-01-15T12:39:08;13.25;;;12.55;;
76119;SDS011;64852;48.092;-1.640;2023-01-15T12:41:41;12.52;;;11.82;;
76119;SDS011;64852;48.092;-1.640;2023-01-15T12:53:22;10.13;;;9.63;;
76119;SDS011;64852;48.092;-1.640;2023-01-15T12:55:57;8.30;;;7.90;;
76119;SDS011;64852;48.092;-1.640;2023-01-15T12:58:42;9.45;;;8.95;;
76119;SDS011;64852;48.092;-1.640;2023-01-15T13:01:15;8.65;;;8.18;;
76119;SDS011;64852;48.092;-1.640;2023-01-15T13:06:24;9.40;;;8.85;;
76119;SDS011;64852;48.092;-1.640;2023-01-15T13:11:20;7.22;;;6.82;;
76119;SDS011;64852;48.092;-1.640;2023-01-15T13:13:46;8.13;;;7.47;;
76119;SDS011;64852;48.092;-1.640;2023-01-15T13:19:03;7.70;;;7.30;;
76119;SDS011;64852;48.092;-1.640;2023-01-15T13:21:45;7.55;;;7.15;;
76119;SDS011;64852;48.092;-1.640;2023-01-15T13:25:00;6.18;;;5.88;;
76119;SDS011;64852;48.092;-1.640;2023-01-15T13:32:31;13.25;;;7.65;;
76119;SDS011;64852;48.092;-1.640;2023-01-15T13:35:10;6.40;;;6.10;;
76119;SDS011;64852;48.092;-1.640;2023-01-15T13:37:57;8.07;;;7.57;;
76119;SDS011;64852;48.092;-1.640;2023-01-15T13:40:26;6.65;;;6.35;;
76119;SDS011;64852;48.092;-1.640;2023-01-15T13:42:59;6.95;;;6.55;;
76119;SDS011;64852;48.092;-1.640;2023-01-15T13:45:36;5.65;;;5.35;;
76119;SDS011;64852;48.092;-1.640;2023-01-15T13:50:40;7.45;;;7.05;;
76119;SDS011;64852;48.092;-1.640;2023-01-15T13:53:30;6.75;;;5.88;;
76119;SDS011;64852;48.092;-1.640;2023-01-15T13:56:09;6.03;;;5.72;;
76119;SDS011;64852;48.092;-1.640;2023-01-15T13:58:39;14.65;;;5.88;;
76119;SDS011;64852;48.092;-1.640;2023-01-15T14:01:34;5.95;;;5.65;;
76119;SDS011;64852;48.092;-1.640;2023-01-15T14:06:40;6.25;;;5.63;;
76119;SDS011;64852;48.092;-1.640;2023-01-15T14:09:26;5.97;;;5.68;;
76119;SDS011;64852;48.092;-1.640;2023-01-15T14:14:51;5.70;;;5.40;;
76119;SDS011;64852;48.092;-1.640;2023-01-15T14:17:35;7.75;;;7.13;;
76119;SDS011;64852;48.092;-1.640;2023-01-15T14:20:36;5.57;;;5.28;;
76119;SDS011;64852;48.092;-1.640;2023-01-15T14:36:37;5.85;;;5.45;;
76119;SDS011;64852;48.092;-1.640;2023-01-15T14:39:20;4.82;;;4.60;;
76119;SDS011;64852;48.092;-1.640;2023-01-15T14:42:03;5.50;;;5.20;;
76119;SDS011;64852;48.092;-1.640;2023-01-15T14:44:54;5.50;;;5.20;;
76119;SDS011;64852;48.092;-1.640;2023-01-15T14:47:34;6.07;;;5.78;;
76119;SDS011;64852;48.092;-1.640;2023-01-15T14:53:16;6.05;;;5.72;;
76119;SDS011;64852;48.092;-1.640;2023-01-15T15:09:35;5.65;;;5.35;;
76119;SDS011;64852;48.092;-1.640;2023-01-15T15:12:19;5.20;;;4.90;;
76119;SDS011;64852;48.092;-1.640;2023-01-15T15:15:06;5.35;;;5.05;;
76119;SDS011;64852;48.092;-1.640;2023-01-15T15:23:35;6.45;;;6.05;;
76119;SDS011;64852;48.092;-1.640;2023-01-15T15:26:20;6.07;;;5.78;;
76119;SDS011;64852;48.092;-1.640;2023-01-15T15:28:58;6.60;;;6.25;;
76119;SDS011;64852;48.092;-1.640;2023-01-15T15:31:39;7.18;;;6.78;;
76119;SDS011;64852;48.092;-1.640;2023-01-15T15:34:24;6.45;;;6.15;;
76119;SDS011;64852;48.092;-1.640;2023-01-15T15:37:00;13.15;;;6.47;;
76119;SDS011;64852;48.092;-1.640;2023-01-15T15:39:30;6.97;;;6.57;;
76119;SDS011;64852;48.092;-1.640;2023-01-15T15:42:05;16.05;;;7.50;;
76119;SDS011;64852;48.092;-1.640;2023-01-15T15:44:59;6.65;;;6.35;;
76119;SDS011;64852;48.092;-1.640;2023-01-15T15:47:44;7.63;;;7.22;;
76119;SDS011;64852;48.092;-1.640;2023-01-15T15:50:31;7.93;;;7.43;;
76119;SDS011;64852;48.092;-1.640;2023-01-15T15:52:59;15.02;;;9.05;;
76119;SDS011;64852;48.092;-1.640;2023-01-15T15:55:36;10.98;;;9.95;;
76119;SDS011;64852;48.092;-1.640;2023-01-15T15:58:06;8.10;;;7.70;;
76119;SDS011;64852;48.092;-1.640;2023-01-15T16:00:41;11.40;;;7.05;;
76119;SDS011;64852;48.092;-1.640;2023-01-15T16:03:17;7.78;;;7.38;;
76119;SDS011;64852;48.092;-1.640;2023-01-15T16:06:04;8.00;;;7.60;;
76119;SDS011;64852;48.092;-1.640;2023-01-15T16:08:32;7.22;;;6.82;;
76119;SDS011;64852;48.092;-1.640;2023-01-15T16:11:06;7.22;;;6.82;;
76119;SDS011;64852;48.092;-1.640;2023-01-15T16:13:40;9.23;;;8.63;;
76119;SDS011;64852;48.092;-1.640;2023-01-15T16:16:08;9.98;;;9.48;;
76119;SDS011;64852;48.092;-1.640;2023-01-15T16:18:37;10.38;;;9.77;;
76119;SDS011;64852;48.092;-1.640;2023-01-15T16:21:08;10.50;;;9.90;;
76119;SDS011;64852;48.092;-1.640;2023-01-15T16:23:56;10.85;;;10.25;;
76119;SDS011;64852;48.092;-1.640;2023-01-15T16:26:48;9.93;;;9.43;;
76119;SDS011;64852;48.092;-1.640;2023-01-15T16:29:28;10.02;;;9.52;;
76119;SDS011;64852;48.092;-1.640;2023-01-15T16:31:57;10.65;;;10.05;;
76119;SDS011;64852;48.092;-1.640;2023-01-15T16:34:28;12.40;;;11.43;;
76119;SDS011;64852;48.092;-1.640;2023-01-15T16:36:55;11.05;;;10.05;;
76119;SDS011;64852;48.092;-1.640;2023-01-15T16:39:34;10.45;;;9.85;;
76119;SDS011;64852;48.092;-1.640;2023-01-15T16:42:04;10.52;;;9.82;;
76119;SDS011;64852;48.092;-1.640;2023-01-15T16:45:25;10.43;;;9.70;;
76119;SDS011;64852;48.092;-1.640;2023-01-15T16:48:26;9.40;;;8.90;;
76119;SDS011;64852;48.092;-1.640;2023-01-15T16:50:51;12.25;;;11.35;;
76119;SDS011;64852;48.092;-1.640;2023-01-15T16:56:03;9.73;;;9.23;;
76119;SDS011;64852;48.092;-1.640;2023-01-15T17:01:23;11.73;;;11.02;;
76119;SDS011;64852;48.092;-1.640;2023-01-15T17:03:50;11.70;;;11.10;;
76119;SDS011;64852;48.092;-1.640;2023-01-15T17:08:45;12.60;;;11.55;;
76119;SDS011;64852;48.092;-1.640;2023-01-15T17:11:20;9.45;;;8.95;;
76119;SDS011;64852;48.092;-1.640;2023-01-15T17:13:49;10.20;;;9.70;;
76119;SDS011;64852;48.092;-1.640;2023-01-15T17:16:16;12.00;;;10.77;;
76119;SDS011;64852;48.092;-1.640;2023-01-15T17:18:43;8.60;;;8.10;;
76119;SDS011;64852;48.092;-1.640;2023-01-15T17:21:22;10.20;;;9.50;;
76119;SDS011;64852;48.092;-1.640;2023-01-15T17:23:52;9.90;;;9.40;;
76119;SDS011;64852;48.092;-1.640;2023-01-15T17:28:46;11.57;;;10.75;;
76119;SDS011;64852;48.092;-1.640;2023-01-15T17:31:31;9.55;;;9.05;;
76119;SDS011;64852;48.092;-1.640;2023-01-15T17:33:59;10.20;;;9.70;;
76119;SDS011;64852;48.092;-1.640;2023-01-15T17:36:26;9.98;;;9.35;;
76119;SDS011;64852;48.092;-1.640;2023-01-15T17:38:53;8.80;;;8.30;;